sensor_id;sensor_type;location;lat;lon;timestamp;P1;durP1;ratioP1;P2;durP2;ratioP2
19341;SDS011;9807;48.258;12.690;2023-05-16T00:01:38;4.43;;;3.93;;
19341;SDS011;9807;48.258;12.690;2023-05-16T00:04:04;4.10;;;3.70;;
19341;SDS011;9807;48.258;12.690;2023-05-16T00:06:30;3.50;;;3.20;;
19341;SDS011;9807;48.258;12.690;2023-05-16T00:08:56;3.27;;;2.97;;
19341;SDS011;9807;48.258;12.690;2023-05-16T00:11:21;4.87;;;3.67;;
19341;SDS011;9807;48.258;12.690;2023-05-16T00:13:49;5.00;;;3.40;;
19341;SDS011;9807;48.258;12.690;2023-05-16T00:16:15;3.30;;;3.00;;
19341;SDS011;9807;48.258;12.690;2023-05-16T00:18:41;3.40;;;3.10;;
19341;SDS011;9807;48.258;12.690;2023-05-16T00:21:09;4.60;;;2.90;;
19341;SDS011;9807;48.258;12.690;2023-05-16T00:23:36;3.07;;;2.70;;
19341;SDS011;9807;48.258;12.690;2023-05-16T00:26:02;5.23;;;4.00;;
19341;SDS011;9807;48.258;12.690;2023-05-16T00:28:28;3.50;;;3.20;;
19341;SDS011;9807;48.258;12.690;2023-05-16T00:30:54;4.83;;;3.20;;
19341;SDS011;9807;48.258;12.690;2023-05-16T00:33:20;3.43;;;2.90;;
19341;SDS011;9807;48.258;12.690;2023-05-16T00:35:45;4.50;;;2.90;;
19341;SDS011;9807;48.258;12.690;2023-05-16T00:38:11;6.53;;;4.00;;
19341;SDS011;9807;48.258;12.690;2023-05-16T00:40:37;9.80;;;4.77;;
19341;SDS011;9807;48.258;12.690;2023-05-16T00:43:03;5.30;;;4.80;;
19341;SDS011;9807;48.258;12.690;2023-05-16T00:45:29;5.93;;;3.90;;
19341;SDS011;9807;48.258;12.690;2023-05-16T00:47:54;4.27;;;3.87;;
19341;SDS011;9807;48.258;12.690;2023-05-16T00:50:20;3.50;;;3.20;;
19341;SDS011;9807;48.258;12.690;2023-05-16T00:52:46;4.50;;;3.30;;
19341;SDS011;9807;48.258;12.690;2023-05-16T00:55:12;7.00;;;4.37;;
19341;SDS011;9807;48.258;12.690;2023-05-16T00:57:38;3.70;;;3.40;;
19341;SDS011;9807;48.258;12.690;2023-05-16T01:00:05;5.43;;;4.03;;
19341;SDS011;9807;48.258;12.690;2023-05-16T01:02:34;3.93;;;3.33;;
19341;SDS011;9807;48.258;12.690;2023-05-16T01:05:02;4.17;;;3.10;;
19341;SDS011;9807;48.258;12.690;2023-05-16T01:07:32;6.37;;;3.90;;
19341;SDS011;9807;48.258;12.690;2023-05-16T01:10:00;5.13;;;4.50;;
19341;SDS011;9807;48.258;12.690;2023-05-16T01:15:12;6.60;;;5.43;;
19341;SDS011;9807;48.258;12.690;2023-05-16T01:20:57;5.63;;;4.50;;
19341;SDS011;9807;48.258;12.690;2023-05-16T01:26:27;3.60;;;3.30;;
19341;SDS011;9807;48.258;12.690;2023-05-16T01:28:54;3.07;;;2.83;;
19341;SDS011;9807;48.258;12.690;2023-05-16T01:31:23;3.07;;;2.77;;
19341;SDS011;9807;48.258;12.690;2023-05-16T01:33:49;3.27;;;2.70;;
19341;SDS011;9807;48.258;12.690;2023-05-16T01:41:34;2.90;;;2.60;;
19341;SDS011;9807;48.258;12.690;2023-05-16T01:44:06;2.70;;;2.50;;
19341;SDS011;9807;48.258;12.690;2023-05-16T01:46:42;2.87;;;2.53;;
19341;SDS011;9807;48.258;12.690;2023-05-16T01:52:16;2.67;;;2.47;;
19341;SDS011;9807;48.258;12.690;2023-05-16T01:54:47;3.00;;;2.70;;
19341;SDS011;9807;48.258;12.690;2023-05-16T01:57:17;3.63;;;3.10;;
19341;SDS011;9807;48.258;12.690;2023-05-16T01:59:43;5.60;;;3.70;;
19341;SDS011;9807;48.258;12.690;2023-05-16T02:02:10;6.20;;;4.43;;
19341;SDS011;9807;48.258;12.690;2023-05-16T02:04:41;5.93;;;4.20;;
19341;SDS011;9807;48.258;12.690;2023-05-16T02:07:07;3.50;;;3.20;;
19341;SDS011;9807;48.258;12.690;2023-05-16T02:09:33;3.67;;;3.10;;
19341;SDS011;9807;48.258;12.690;2023-05-16T02:11:58;3.47;;;3.17;;
19341;SDS011;9807;48.258;12.690;2023-05-16T02:14:24;7.93;;;4.60;;
19341;SDS011;9807;48.258;12.690;2023-05-16T02:16:50;5.87;;;5.27;;
19341;SDS011;9807;48.258;12.690;2023-05-16T02:19:16;5.60;;;4.30;;
19341;SDS011;9807;48.258;12.690;2023-05-16T02:21:42;3.67;;;3.37;;
19341;SDS011;9807;48.258;12.690;2023-05-16T02:24:07;8.60;;;3.43;;
19341;SDS011;9807;48.258;12.690;2023-05-16T02:26:33;3.10;;;2.60;;
19341;SDS011;9807;48.258;12.690;2023-05-16T02:28:59;3.03;;;2.77;;
19341;SDS011;9807;48.258;12.690;2023-05-16T02:31:28;2.73;;;2.53;;
19341;SDS011;9807;48.258;12.690;2023-05-16T02:33:58;2.83;;;2.63;;
19341;SDS011;9807;48.258;12.690;2023-05-16T02:36:24;2.73;;;2.53;;
19341;SDS011;9807;48.258;12.690;2023-05-16T02:38:50;3.30;;;2.50;;
19341;SDS011;9807;48.258;12.690;2023-05-16T02:41:16;3.47;;;2.80;;
19341;SDS011;9807;48.258;12.690;2023-05-16T02:43:42;3.37;;;2.70;;
19341;SDS011;9807;48.258;12.690;2023-05-16T02:46:20;3.00;;;2.70;;
19341;SDS011;9807;48.258;12.690;2023-05-16T02:48:48;3.67;;;2.90;;
19341;SDS011;9807;48.258;12.690;2023-05-16T02:51:15;4.63;;;2.63;;
19341;SDS011;9807;48.258;12.690;2023-05-16T02:53:40;3.63;;;3.07;;
19341;SDS011;9807;48.258;12.690;2023-05-16T02:56:06;4.57;;;2.57;;
19341;SDS011;9807;48.258;12.690;2023-05-16T02:58:32;2.90;;;2.67;;
19341;SDS011;9807;48.258;12.690;2023-05-16T03:01:01;2.63;;;2.43;;
19341;SDS011;9807;48.258;12.690;2023-05-16T03:03:32;2.73;;;2.53;;
19341;SDS011;9807;48.258;12.690;2023-05-16T03:06:00;2.60;;;2.40;;
19341;SDS011;9807;48.258;12.690;2023-05-16T03:08:26;3.57;;;3.27;;
19341;SDS011;9807;48.258;12.690;2023-05-16T03:10:52;3.27;;;2.90;;
19341;SDS011;9807;48.258;12.690;2023-05-16T03:13:17;3.20;;;2.90;;
19341;SDS011;9807;48.258;12.690;2023-05-16T03:15:43;2.83;;;2.50;;
19341;SDS011;9807;48.258;12.690;2023-05-16T03:18:09;2.90;;;2.60;;
19341;SDS011;9807;48.258;12.690;2023-05-16T03:20:38;4.03;;;3.63;;
19341;SDS011;9807;48.258;12.690;2023-05-16T03:23:04;4.13;;;2.70;;
19341;SDS011;9807;48.258;12.690;2023-05-16T03:25:32;3.47;;;3.17;;
19341;SDS011;9807;48.258;12.690;2023-05-16T03:27:58;3.27;;;2.97;;
19341;SDS011;9807;48.258;12.690;2023-05-16T03:30:24;7.40;;;4.67;;
19341;SDS011;9807;48.258;12.690;2023-05-16T03:32:50;7.80;;;4.63;;
19341;SDS011;9807;48.258;12.690;2023-05-16T03:35:17;4.60;;;3.50;;
19341;SDS011;9807;48.258;12.690;2023-05-16T03:37:47;6.33;;;3.63;;
19341;SDS011;9807;48.258;12.690;2023-05-16T03:40:13;6.17;;;3.50;;
19341;SDS011;9807;48.258;12.690;2023-05-16T03:42:39;6.33;;;4.30;;
19341;SDS011;9807;48.258;12.690;2023-05-16T03:45:05;5.87;;;3.80;;
19341;SDS011;9807;48.258;12.690;2023-05-16T03:47:31;6.63;;;4.13;;
19341;SDS011;9807;48.258;12.690;2023-05-16T03:49:57;5.70;;;3.87;;
19341;SDS011;9807;48.258;12.690;2023-05-16T03:52:23;3.80;;;3.43;;
19341;SDS011;9807;48.258;12.690;2023-05-16T03:54:49;4.20;;;3.80;;
19341;SDS011;9807;48.258;12.690;2023-05-16T03:57:18;5.37;;;4.40;;
19341;SDS011;9807;48.258;12.690;2023-05-16T03:59:43;3.73;;;3.43;;
19341;SDS011;9807;48.258;12.690;2023-05-16T04:02:09;3.97;;;3.10;;
19341;SDS011;9807;48.258;12.690;2023-05-16T04:04:35;6.87;;;3.60;;
19341;SDS011;9807;48.258;12.690;2023-05-16T04:07:01;2.73;;;2.53;;
19341;SDS011;9807;48.258;12.690;2023-05-16T04:09:27;3.03;;;2.60;;
19341;SDS011;9807;48.258;12.690;2023-05-16T04:11:56;2.90;;;2.70;;
19341;SDS011;9807;48.258;12.690;2023-05-16T04:14:22;4.27;;;3.67;;
19341;SDS011;9807;48.258;12.690;2023-05-16T04:16:48;5.17;;;4.00;;
19341;SDS011;9807;48.258;12.690;2023-05-16T04:19:14;5.80;;;4.37;;
19341;SDS011;9807;48.258;12.690;2023-05-16T04:21:40;6.07;;;4.93;;
19341;SDS011;9807;48.258;12.690;2023-05-16T04:24:06;6.10;;;5.20;;
19341;SDS011;9807;48.258;12.690;2023-05-16T04:26:32;4.50;;;4.10;;
19341;SDS011;9807;48.258;12.690;2023-05-16T04:28:58;4.17;;;3.67;;
19341;SDS011;9807;48.258;12.690;2023-05-16T04:31:24;3.90;;;3.17;;
19341;SDS011;9807;48.258;12.690;2023-05-16T04:33:50;2.60;;;2.40;;
19341;SDS011;9807;48.258;12.690;2023-05-16T04:36:17;4.30;;;3.00;;
19341;SDS011;9807;48.258;12.690;2023-05-16T04:38:42;4.50;;;3.30;;
19341;SDS011;9807;48.258;12.690;2023-05-16T04:41:08;6.07;;;2.93;;
19341;SDS011;9807;48.258;12.690;2023-05-16T04:43:34;2.90;;;2.70;;
19341;SDS011;9807;48.258;12.690;2023-05-16T04:45:59;2.60;;;2.40;;
19341;SDS011;9807;48.258;12.690;2023-05-16T04:48:25;3.17;;;2.73;;
19341;SDS011;9807;48.258;12.690;2023-05-16T04:50:51;3.00;;;2.67;;
19341;SDS011;9807;48.258;12.690;2023-05-16T04:53:17;4.57;;;2.67;;
19341;SDS011;9807;48.258;12.690;2023-05-16T04:55:42;3.20;;;2.80;;
19341;SDS011;9807;48.258;12.690;2023-05-16T04:58:08;3.73;;;2.97;;
19341;SDS011;9807;48.258;12.690;2023-05-16T05:00:37;3.20;;;2.90;;
19341;SDS011;9807;48.258;12.690;2023-05-16T05:03:03;2.73;;;2.30;;
19341;SDS011;9807;48.258;12.690;2023-05-16T05:05:29;3.50;;;3.10;;
19341;SDS011;9807;48.258;12.690;2023-05-16T05:07:56;2.90;;;2.70;;
19341;SDS011;9807;48.258;12.690;2023-05-16T05:10:23;5.87;;;3.50;;
19341;SDS011;9807;48.258;12.690;2023-05-16T05:12:49;2.90;;;2.70;;
19341;SDS011;9807;48.258;12.690;2023-05-16T05:15:14;8.10;;;4.33;;
19341;SDS011;9807;48.258;12.690;2023-05-16T05:17:40;11.97;;;4.37;;
19341;SDS011;9807;48.258;12.690;2023-05-16T05:20:06;6.10;;;3.70;;
19341;SDS011;9807;48.258;12.690;2023-05-16T05:22:34;6.07;;;4.50;;
19341;SDS011;9807;48.258;12.690;2023-05-16T05:25:00;7.67;;;4.87;;
19341;SDS011;9807;48.258;12.690;2023-05-16T05:27:26;7.83;;;4.90;;
19341;SDS011;9807;48.258;12.690;2023-05-16T05:29:51;11.87;;;4.93;;
19341;SDS011;9807;48.258;12.690;2023-05-16T05:32:17;7.40;;;5.13;;
19341;SDS011;9807;48.258;12.690;2023-05-16T05:34:43;7.37;;;4.97;;
19341;SDS011;9807;48.258;12.690;2023-05-16T05:37:09;5.90;;;5.17;;
19341;SDS011;9807;48.258;12.690;2023-05-16T05:39:35;7.47;;;4.83;;
19341;SDS011;9807;48.258;12.690;2023-05-16T05:42:01;13.13;;;5.20;;
19341;SDS011;9807;48.258;12.690;2023-05-16T05:44:28;9.73;;;5.27;;
19341;SDS011;9807;48.258;12.690;2023-05-16T05:46:54;6.67;;;5.17;;
19341;SDS011;9807;48.258;12.690;2023-05-16T05:49:21;5.77;;;5.10;;
19341;SDS011;9807;48.258;12.690;2023-05-16T05:51:48;6.47;;;5.30;;
19341;SDS011;9807;48.258;12.690;2023-05-16T05:54:16;6.20;;;5.40;;
19341;SDS011;9807;48.258;12.690;2023-05-16T05:56:42;8.93;;;6.20;;
19341;SDS011;9807;48.258;12.690;2023-05-16T05:59:11;7.47;;;4.83;;
19341;SDS011;9807;48.258;12.690;2023-05-16T06:01:37;7.97;;;5.27;;
19341;SDS011;9807;48.258;12.690;2023-05-16T06:04:03;12.00;;;6.00;;
19341;SDS011;9807;48.258;12.690;2023-05-16T06:06:32;10.17;;;6.50;;
19341;SDS011;9807;48.258;12.690;2023-05-16T06:09:01;11.43;;;6.43;;
19341;SDS011;9807;48.258;12.690;2023-05-16T06:11:27;11.07;;;7.27;;
19341;SDS011;9807;48.258;12.690;2023-05-16T06:13:57;8.10;;;7.30;;
19341;SDS011;9807;48.258;12.690;2023-05-16T06:16:23;9.63;;;7.60;;
19341;SDS011;9807;48.258;12.690;2023-05-16T06:18:55;9.60;;;8.13;;
19341;SDS011;9807;48.258;12.690;2023-05-16T06:21:21;14.20;;;8.27;;
19341;SDS011;9807;48.258;12.690;2023-05-16T06:23:46;6.97;;;6.03;;
19341;SDS011;9807;48.258;12.690;2023-05-16T06:26:12;8.93;;;7.73;;
19341;SDS011;9807;48.258;12.690;2023-05-16T06:28:37;8.87;;;7.13;;
19341;SDS011;9807;48.258;12.690;2023-05-16T06:31:03;17.60;;;8.37;;
19341;SDS011;9807;48.258;12.690;2023-05-16T06:33:29;15.83;;;8.10;;
19341;SDS011;9807;48.258;12.690;2023-05-16T06:35:57;7.40;;;6.50;;
19341;SDS011;9807;48.258;12.690;2023-05-16T06:38:23;11.97;;;7.77;;
19341;SDS011;9807;48.258;12.690;2023-05-16T06:40:48;9.13;;;8.20;;
19341;SDS011;9807;48.258;12.690;2023-05-16T06:43:14;10.13;;;7.90;;
19341;SDS011;9807;48.258;12.690;2023-05-16T06:45:43;15.63;;;9.13;;
19341;SDS011;9807;48.258;12.690;2023-05-16T06:48:09;9.27;;;7.93;;
19341;SDS011;9807;48.258;12.690;2023-05-16T06:50:35;12.53;;;8.80;;
19341;SDS011;9807;48.258;12.690;2023-05-16T06:53:03;14.63;;;9.50;;
19341;SDS011;9807;48.258;12.690;2023-05-16T06:55:31;11.53;;;9.23;;
19341;SDS011;9807;48.258;12.690;2023-05-16T06:58:00;11.73;;;9.53;;
19341;SDS011;9807;48.258;12.690;2023-05-16T07:00:26;13.00;;;10.13;;
19341;SDS011;9807;48.258;12.690;2023-05-16T07:02:51;15.63;;;9.00;;
19341;SDS011;9807;48.258;12.690;2023-05-16T07:05:17;8.93;;;7.83;;
19341;SDS011;9807;48.258;12.690;2023-05-16T07:07:45;8.47;;;7.47;;
19341;SDS011;9807;48.258;12.690;2023-05-16T07:10:13;8.63;;;7.73;;
19341;SDS011;9807;48.258;12.690;2023-05-16T07:12:40;12.47;;;10.17;;
19341;SDS011;9807;48.258;12.690;2023-05-16T07:15:07;14.30;;;10.73;;
19341;SDS011;9807;48.258;12.690;2023-05-16T07:17:33;12.27;;;9.70;;
19341;SDS011;9807;48.258;12.690;2023-05-16T07:19:59;10.53;;;7.73;;
19341;SDS011;9807;48.258;12.690;2023-05-16T07:22:25;10.87;;;7.53;;
19341;SDS011;9807;48.258;12.690;2023-05-16T07:24:50;11.93;;;9.00;;
19341;SDS011;9807;48.258;12.690;2023-05-16T07:27:18;11.53;;;10.33;;
19341;SDS011;9807;48.258;12.690;2023-05-16T07:29:44;10.80;;;9.80;;
19341;SDS011;9807;48.258;12.690;2023-05-16T07:32:10;13.47;;;10.77;;
19341;SDS011;9807;48.258;12.690;2023-05-16T07:34:36;14.00;;;10.43;;
19341;SDS011;9807;48.258;12.690;2023-05-16T07:37:01;11.37;;;9.37;;
19341;SDS011;9807;48.258;12.690;2023-05-16T07:39:27;9.27;;;8.13;;
19341;SDS011;9807;48.258;12.690;2023-05-16T07:41:54;9.67;;;8.60;;
19341;SDS011;9807;48.258;12.690;2023-05-16T07:44:22;11.20;;;9.47;;
19341;SDS011;9807;48.258;12.690;2023-05-16T07:46:47;9.63;;;8.63;;
19341;SDS011;9807;48.258;12.690;2023-05-16T07:49:13;13.43;;;10.27;;
19341;SDS011;9807;48.258;12.690;2023-05-16T07:51:39;11.13;;;9.37;;
19341;SDS011;9807;48.258;12.690;2023-05-16T07:54:05;10.03;;;8.97;;
19341;SDS011;9807;48.258;12.690;2023-05-16T07:56:31;13.53;;;10.50;;
19341;SDS011;9807;48.258;12.690;2023-05-16T07:58:57;10.90;;;9.80;;
19341;SDS011;9807;48.258;12.690;2023-05-16T08:01:23;10.70;;;9.60;;
19341;SDS011;9807;48.258;12.690;2023-05-16T08:03:49;9.43;;;8.53;;
19341;SDS011;9807;48.258;12.690;2023-05-16T08:06:15;7.97;;;7.20;;
19341;SDS011;9807;48.258;12.690;2023-05-16T08:08:41;8.80;;;7.93;;
19341;SDS011;9807;48.258;12.690;2023-05-16T08:11:07;8.30;;;7.50;;
19341;SDS011;9807;48.258;12.690;2023-05-16T08:13:33;15.43;;;10.57;;
19341;SDS011;9807;48.258;12.690;2023-05-16T08:15:58;16.30;;;10.20;;
19341;SDS011;9807;48.258;12.690;2023-05-16T08:18:24;9.20;;;8.10;;
19341;SDS011;9807;48.258;12.690;2023-05-16T08:20:50;11.30;;;10.20;;
19341;SDS011;9807;48.258;12.690;2023-05-16T08:23:15;11.50;;;9.70;;
19341;SDS011;9807;48.258;12.690;2023-05-16T08:25:41;11.27;;;9.93;;
19341;SDS011;9807;48.258;12.690;2023-05-16T08:28:10;12.77;;;10.90;;
19341;SDS011;9807;48.258;12.690;2023-05-16T08:30:39;12.00;;;9.80;;
19341;SDS011;9807;48.258;12.690;2023-05-16T08:33:05;13.63;;;10.63;;
19341;SDS011;9807;48.258;12.690;2023-05-16T08:35:31;15.67;;;11.20;;
19341;SDS011;9807;48.258;12.690;2023-05-16T08:37:59;15.47;;;11.07;;
19341;SDS011;9807;48.258;12.690;2023-05-16T08:40:26;14.23;;;11.30;;
19341;SDS011;9807;48.258;12.690;2023-05-16T08:42:52;14.07;;;12.10;;
19341;SDS011;9807;48.258;12.690;2023-05-16T08:45:20;12.13;;;10.90;;
19341;SDS011;9807;48.258;12.690;2023-05-16T08:47:48;16.80;;;10.93;;
19341;SDS011;9807;48.258;12.690;2023-05-16T08:50:15;13.90;;;12.30;;
19341;SDS011;9807;48.258;12.690;2023-05-16T08:52:41;19.83;;;13.30;;
19341;SDS011;9807;48.258;12.690;2023-05-16T08:55:08;16.43;;;12.63;;
19341;SDS011;9807;48.258;12.690;2023-05-16T08:57:34;15.87;;;13.00;;
19341;SDS011;9807;48.258;12.690;2023-05-16T09:00:00;16.90;;;12.90;;
19341;SDS011;9807;48.258;12.690;2023-05-16T09:02:38;28.57;;;13.50;;
19341;SDS011;9807;48.258;12.690;2023-05-16T09:05:05;19.97;;;13.40;;
19341;SDS011;9807;48.258;12.690;2023-05-16T09:07:36;15.07;;;13.47;;
19341;SDS011;9807;48.258;12.690;2023-05-16T09:10:02;19.63;;;13.07;;
19341;SDS011;9807;48.258;12.690;2023-05-16T09:12:30;15.13;;;12.33;;
19341;SDS011;9807;48.258;12.690;2023-05-16T09:14:57;14.47;;;12.00;;
19341;SDS011;9807;48.258;12.690;2023-05-16T09:17:23;13.47;;;12.07;;
19341;SDS011;9807;48.258;12.690;2023-05-16T09:19:49;13.93;;;12.50;;
19341;SDS011;9807;48.258;12.690;2023-05-16T09:22:17;15.10;;;12.93;;
19341;SDS011;9807;48.258;12.690;2023-05-16T09:24:43;18.63;;;13.50;;
19341;SDS011;9807;48.258;12.690;2023-05-16T09:27:18;16.07;;;13.00;;
19341;SDS011;9807;48.258;12.690;2023-05-16T09:29:45;17.97;;;13.70;;
19341;SDS011;9807;48.258;12.690;2023-05-16T09:32:15;16.97;;;14.30;;
19341;SDS011;9807;48.258;12.690;2023-05-16T09:34:51;18.00;;;14.47;;
19341;SDS011;9807;48.258;12.690;2023-05-16T09:37:21;19.77;;;13.80;;
19341;SDS011;9807;48.258;12.690;2023-05-16T09:39:48;15.93;;;12.03;;
19341;SDS011;9807;48.258;12.690;2023-05-16T09:42:15;15.47;;;11.17;;
19341;SDS011;9807;48.258;12.690;2023-05-16T09:44:45;15.67;;;13.27;;
19341;SDS011;9807;48.258;12.690;2023-05-16T09:47:18;18.37;;;13.53;;
19341;SDS011;9807;48.258;12.690;2023-05-16T09:49:45;15.80;;;13.30;;
19341;SDS011;9807;48.258;12.690;2023-05-16T09:52:13;11.37;;;10.07;;
19341;SDS011;9807;48.258;12.690;2023-05-16T09:54:39;13.83;;;12.40;;
19341;SDS011;9807;48.258;12.690;2023-05-16T09:57:05;16.93;;;13.57;;
19341;SDS011;9807;48.258;12.690;2023-05-16T09:59:35;15.37;;;13.67;;
19341;SDS011;9807;48.258;12.690;2023-05-16T10:02:01;16.17;;;13.43;;
19341;SDS011;9807;48.258;12.690;2023-05-16T10:04:29;18.83;;;14.03;;
19341;SDS011;9807;48.258;12.690;2023-05-16T10:06:55;20.93;;;14.50;;
19341;SDS011;9807;48.258;12.690;2023-05-16T10:09:22;15.23;;;13.60;;
19341;SDS011;9807;48.258;12.690;2023-05-16T10:11:48;15.97;;;12.83;;
19341;SDS011;9807;48.258;12.690;2023-05-16T10:14:17;16.80;;;13.53;;
19341;SDS011;9807;48.258;12.690;2023-05-16T10:16:45;15.33;;;11.37;;
19341;SDS011;9807;48.258;12.690;2023-05-16T10:19:12;13.60;;;12.20;;
19341;SDS011;9807;48.258;12.690;2023-05-16T10:21:40;16.87;;;13.20;;
19341;SDS011;9807;48.258;12.690;2023-05-16T10:24:12;14.77;;;12.47;;
19341;SDS011;9807;48.258;12.690;2023-05-16T10:26:45;16.83;;;13.80;;
19341;SDS011;9807;48.258;12.690;2023-05-16T10:29:11;14.73;;;13.23;;
19341;SDS011;9807;48.258;12.690;2023-05-16T10:31:37;19.27;;;12.93;;
19341;SDS011;9807;48.258;12.690;2023-05-16T10:34:03;24.47;;;14.20;;
19341;SDS011;9807;48.258;12.690;2023-05-16T10:36:30;16.07;;;13.93;;
19341;SDS011;9807;48.258;12.690;2023-05-16T10:38:56;17.07;;;13.33;;
19341;SDS011;9807;48.258;12.690;2023-05-16T10:41:22;17.23;;;12.90;;
19341;SDS011;9807;48.258;12.690;2023-05-16T10:43:56;15.70;;;13.90;;
19341;SDS011;9807;48.258;12.690;2023-05-16T10:46:22;15.70;;;13.03;;
19341;SDS011;9807;48.258;12.690;2023-05-16T10:48:49;15.57;;;12.70;;
19341;SDS011;9807;48.258;12.690;2023-05-16T10:51:34;13.60;;;12.03;;
19341;SDS011;9807;48.258;12.690;2023-05-16T10:54:07;12.87;;;10.17;;
19341;SDS011;9807;48.258;12.690;2023-05-16T10:56:35;14.33;;;12.77;;
19341;SDS011;9807;48.258;12.690;2023-05-16T10:59:01;17.93;;;13.40;;
19341;SDS011;9807;48.258;12.690;2023-05-16T11:01:29;15.20;;;11.73;;
19341;SDS011;9807;48.258;12.690;2023-05-16T11:06:32;15.53;;;13.50;;
19341;SDS011;9807;48.258;12.690;2023-05-16T11:14:27;11.60;;;10.40;;
19341;SDS011;9807;48.258;12.690;2023-05-16T11:19:30;14.27;;;12.77;;
19341;SDS011;9807;48.258;12.690;2023-05-16T11:25:08;21.50;;;16.67;;
19341;SDS011;9807;48.258;12.690;2023-05-16T11:27:35;15.60;;;12.60;;
19341;SDS011;9807;48.258;12.690;2023-05-16T11:30:12;15.07;;;11.93;;
19341;SDS011;9807;48.258;12.690;2023-05-16T11:32:43;15.57;;;12.53;;
19341;SDS011;9807;48.258;12.690;2023-05-16T11:35:10;11.17;;;8.33;;
19341;SDS011;9807;48.258;12.690;2023-05-16T11:37:39;11.30;;;10.00;;
19341;SDS011;9807;48.258;12.690;2023-05-16T11:40:07;13.93;;;11.00;;
19341;SDS011;9807;48.258;12.690;2023-05-16T11:42:35;16.67;;;12.60;;
19341;SDS011;9807;48.258;12.690;2023-05-16T11:45:11;13.07;;;11.73;;
19341;SDS011;9807;48.258;12.690;2023-05-16T11:47:44;11.80;;;10.30;;
19341;SDS011;9807;48.258;12.690;2023-05-16T11:50:14;18.87;;;12.20;;
19341;SDS011;9807;48.258;12.690;2023-05-16T11:52:46;14.67;;;10.80;;
19341;SDS011;9807;48.258;12.690;2023-05-16T11:55:13;14.10;;;12.53;;
19341;SDS011;9807;48.258;12.690;2023-05-16T11:57:40;11.70;;;10.50;;
19341;SDS011;9807;48.258;12.690;2023-05-16T12:02:50;12.83;;;11.33;;
19341;SDS011;9807;48.258;12.690;2023-05-16T12:05:17;13.60;;;12.17;;
19341;SDS011;9807;48.258;12.690;2023-05-16T12:07:44;11.37;;;10.27;;
19341;SDS011;9807;48.258;12.690;2023-05-16T12:10:12;13.67;;;12.33;;
19341;SDS011;9807;48.258;12.690;2023-05-16T12:12:40;15.40;;;12.57;;
19341;SDS011;9807;48.258;12.690;2023-05-16T12:15:07;14.07;;;12.57;;
19341;SDS011;9807;48.258;12.690;2023-05-16T12:17:35;13.03;;;11.73;;
19341;SDS011;9807;48.258;12.690;2023-05-16T12:20:02;15.23;;;12.37;;
19341;SDS011;9807;48.258;12.690;2023-05-16T12:22:35;15.30;;;11.27;;
19341;SDS011;9807;48.258;12.690;2023-05-16T12:25:20;13.93;;;11.30;;
19341;SDS011;9807;48.258;12.690;2023-05-16T12:27:52;13.97;;;10.73;;
19341;SDS011;9807;48.258;12.690;2023-05-16T12:30:24;10.93;;;9.83;;
19341;SDS011;9807;48.258;12.690;2023-05-16T12:32:55;12.87;;;10.17;;
19341;SDS011;9807;48.258;12.690;2023-05-16T12:35:24;9.90;;;8.90;;
19341;SDS011;9807;48.258;12.690;2023-05-16T12:37:54;9.47;;;8.57;;
19341;SDS011;9807;48.258;12.690;2023-05-16T12:40:23;13.53;;;12.13;;
19341;SDS011;9807;48.258;12.690;2023-05-16T12:42:53;14.40;;;11.53;;
19341;SDS011;9807;48.258;12.690;2023-05-16T12:45:23;14.77;;;12.67;;
19341;SDS011;9807;48.258;12.690;2023-05-16T12:47:51;14.07;;;12.37;;
19341;SDS011;9807;48.258;12.690;2023-05-16T12:50:17;15.63;;;13.67;;
19341;SDS011;9807;48.258;12.690;2023-05-16T12:52:50;15.60;;;13.87;;
19341;SDS011;9807;48.258;12.690;2023-05-16T12:55:22;17.63;;;13.90;;
19341;SDS011;9807;48.258;12.690;2023-05-16T12:57:48;15.90;;;14.20;;
19341;SDS011;9807;48.258;12.690;2023-05-16T13:00:15;15.93;;;14.33;;
19341;SDS011;9807;48.258;12.690;2023-05-16T13:02:46;20.43;;;14.00;;
19341;SDS011;9807;48.258;12.690;2023-05-16T13:05:12;15.97;;;14.37;;
19341;SDS011;9807;48.258;12.690;2023-05-16T13:07:38;15.37;;;13.77;;
19341;SDS011;9807;48.258;12.690;2023-05-16T13:10:08;21.03;;;13.07;;
19341;SDS011;9807;48.258;12.690;2023-05-16T13:12:38;15.43;;;13.40;;
19341;SDS011;9807;48.258;12.690;2023-05-16T13:15:05;14.77;;;13.27;;
19341;SDS011;9807;48.258;12.690;2023-05-16T13:17:32;16.90;;;13.87;;
19341;SDS011;9807;48.258;12.690;2023-05-16T13:20:01;20.77;;;13.83;;
19341;SDS011;9807;48.258;12.690;2023-05-16T13:22:32;14.67;;;12.63;;
19341;SDS011;9807;48.258;12.690;2023-05-16T13:24:58;15.90;;;14.17;;
19341;SDS011;9807;48.258;12.690;2023-05-16T13:27:24;16.93;;;14.30;;
19341;SDS011;9807;48.258;12.690;2023-05-16T13:29:50;16.23;;;13.20;;
19341;SDS011;9807;48.258;12.690;2023-05-16T13:32:16;20.23;;;12.97;;
19341;SDS011;9807;48.258;12.690;2023-05-16T13:34:42;15.63;;;13.17;;
19341;SDS011;9807;48.258;12.690;2023-05-16T13:37:09;14.63;;;10.53;;
19341;SDS011;9807;48.258;12.690;2023-05-16T13:39:35;12.83;;;7.83;;
19341;SDS011;9807;48.258;12.690;2023-05-16T13:42:00;13.27;;;6.63;;
19341;SDS011;9807;48.258;12.690;2023-05-16T13:44:27;8.30;;;5.70;;
19341;SDS011;9807;48.258;12.690;2023-05-16T13:46:56;8.37;;;5.63;;
19341;SDS011;9807;48.258;12.690;2023-05-16T13:49:22;8.27;;;6.13;;
19341;SDS011;9807;48.258;12.690;2023-05-16T13:51:47;8.80;;;5.57;;
19341;SDS011;9807;48.258;12.690;2023-05-16T13:54:13;6.47;;;5.80;;
19341;SDS011;9807;48.258;12.690;2023-05-16T13:56:42;8.43;;;5.80;;
19341;SDS011;9807;48.258;12.690;2023-05-16T13:59:08;8.13;;;5.80;;
19341;SDS011;9807;48.258;12.690;2023-05-16T14:01:35;7.77;;;5.60;;
19341;SDS011;9807;48.258;12.690;2023-05-16T14:04:01;9.10;;;5.90;;
19341;SDS011;9807;48.258;12.690;2023-05-16T14:06:27;10.90;;;6.30;;
19341;SDS011;9807;48.258;12.690;2023-05-16T14:08:52;8.70;;;6.03;;
19341;SDS011;9807;48.258;12.690;2023-05-16T14:11:19;8.70;;;6.23;;
19341;SDS011;9807;48.258;12.690;2023-05-16T14:13:50;7.77;;;6.37;;
19341;SDS011;9807;48.258;12.690;2023-05-16T14:16:16;9.03;;;6.00;;
19341;SDS011;9807;48.258;12.690;2023-05-16T14:18:42;7.67;;;6.17;;
19341;SDS011;9807;48.258;12.690;2023-05-16T14:21:11;11.07;;;6.83;;
19341;SDS011;9807;48.258;12.690;2023-05-16T14:23:37;8.23;;;5.83;;
19341;SDS011;9807;48.258;12.690;2023-05-16T14:26:03;10.43;;;7.33;;
19341;SDS011;9807;48.258;12.690;2023-05-16T14:28:29;10.67;;;6.80;;
19341;SDS011;9807;48.258;12.690;2023-05-16T14:30:57;7.80;;;6.43;;
19341;SDS011;9807;48.258;12.690;2023-05-16T14:33:23;7.57;;;6.70;;
19341;SDS011;9807;48.258;12.690;2023-05-16T14:35:48;9.27;;;7.80;;
19341;SDS011;9807;48.258;12.690;2023-05-16T14:38:17;9.63;;;8.03;;
19341;SDS011;9807;48.258;12.690;2023-05-16T14:41:04;13.83;;;10.50;;
19341;SDS011;9807;48.258;12.690;2023-05-16T14:43:30;9.37;;;7.40;;
19341;SDS011;9807;48.258;12.690;2023-05-16T14:45:55;8.70;;;7.00;;
19341;SDS011;9807;48.258;12.690;2023-05-16T14:48:21;10.10;;;7.43;;
19341;SDS011;9807;48.258;12.690;2023-05-16T14:50:47;11.20;;;8.63;;
19341;SDS011;9807;48.258;12.690;2023-05-16T14:53:15;7.93;;;6.97;;
19341;SDS011;9807;48.258;12.690;2023-05-16T14:55:41;10.17;;;8.40;;
19341;SDS011;9807;48.258;12.690;2023-05-16T14:58:08;9.43;;;8.40;;
19341;SDS011;9807;48.258;12.690;2023-05-16T15:00:34;8.77;;;7.70;;
19341;SDS011;9807;48.258;12.690;2023-05-16T15:02:59;10.00;;;8.17;;
19341;SDS011;9807;48.258;12.690;2023-05-16T15:05:29;8.57;;;7.60;;
19341;SDS011;9807;48.258;12.690;2023-05-16T15:07:54;9.00;;;7.87;;
19341;SDS011;9807;48.258;12.690;2023-05-16T15:10:20;10.73;;;8.23;;